バマコ の空港の天気 - METARとTAF

バマコ・セヌー国際空港 ( GABS / BKO ) - マリ バマコ
飛行場実況気象(Metar)
観測時間04/27 04:30 GMT (04/27 04:30 UTC)
風向・風速西南西 2m/s
視程10km以上
天気現象
なし
気温30℃
湿度43%
気圧1012hPa
METARGABS 270430Z 25003KT CAVOK 30/16 Q1012 NOSIG
過去の天気等 Google飛行場航空写真 Wunderground天気予報

過去48時間のMETAR

飛行場予報(TAF)
発表時間: 4/26 23:00 GMT (4/26 23:00 UTC)
予報対象時間: 27日0時 GMT ~ 28日6時 GMT
風向・風速南南西 3m/s
視程10km以上
なし
27日12時 GMT ~ 27日18時 GMT に 確率 40% で一時的に
視程4,500m
天気現象弱い雷雨
全天の4割程度の雲 雲底高度 910m
少しの積乱雲 雲底高度 1,010m
TAF GABS 262300Z 2700/2806 20005KT CAVOK
PROB40 TEMPO 2712/2718 4500 -TSRA SCT030 FEW033CB